Shannon Mary — WDH6439 — position and weather

sailwx.info

Track history (hours):
 
Tides and Currents Weather Stations Pressure Air Temp Water Temp Dewpoint Dewpoint Depression Visibility Wind Speed Wind Dir Waves Ship Positions

Shannon Mary

Owner: Genesis Marine, LLC, Houston, TX. More information available from US FCC via Universal Licensing System and Coast Guard Vessel Documentation Center.

Last reported at 2018-Jul-20 21:30 UTC. Time now 2018-Jul-20 21:47 UTC.
Position N 29°57' W 093°10'.

Length 26 m; draft 3.2 m.

Type: Ship (hazmat cat D). MMSI: 367637970.

Date/timePositionNaut miles runAvg speedWind from/ knotsBaromVisibWave heightAir tempDewpointWater temp
2018-Jul-20 21:30N 29°57' W 093°10'0 0.0
2018-Jul-20 21:00N 29°57' W 093°10'1 2.6
2018-Jul-20 20:30N 29°56' W 093°09'0 0.0
2018-Jul-20 20:00N 29°56' W 093°09'0 0.0
2018-Jul-20 19:30N 29°56' W 093°09'0 0.0
2018-Jul-20 19:00N 29°56' W 093°09'0 0.0
2018-Jul-20 18:30N 29°56' W 093°09'0 0.0
2018-Jul-20 18:00N 29°56' W 093°09'0 0.0
2018-Jul-20 17:30N 29°56' W 093°09'0 0.0
2018-Jul-20 17:00N 29°56' W 093°09'0 0.0
2018-Jul-20 16:30N 29°56' W 093°09'0 0.0
2018-Jul-20 16:00N 29°56' W 093°09'0 0.0
2018-Jul-20 15:30N 29°56' W 093°09'0 0.0
2018-Jul-20 15:00N 29°56' W 093°09'0 0.0
2018-Jul-20 14:30N 29°56' W 093°09'0 0.0
2018-Jul-20 14:00N 29°56' W 093°09'0 0.0
2018-Jul-20 13:30N 29°56' W 093°09'0 0.0
2018-Jul-20 13:00N 29°56' W 093°09'0 0.0
2018-Jul-20 12:30N 29°56' W 093°09'0 0.0
2018-Jul-20 11:59N 29°56' W 093°09'2 3.0
2018-Jul-20 11:28N 29°56' W 093°07'2 5.1
2018-Jul-20 11:00N 29°56' W 093°04'1 1.3
2018-Jul-20 10:30N 29°56' W 093°04'0 0.0
2018-Jul-20 09:59N 29°56' W 093°04'0 0.0
2018-Jul-20 09:30N 29°56' W 093°04'0 0.0
2018-Jul-20 09:00N 29°56' W 093°04'0 0.0
2018-Jul-20 08:30N 29°56' W 093°04'1 1.1
2018-Jul-20 07:54N 29°56' W 093°03'2 5.7
2018-Jul-20 07:30N 29°56' W 093°00'1 2.1
2018-Jul-20 07:00N 29°56' W 092°59'0 0.0
2018-Jul-20 06:30N 29°56' W 092°59'0 0.0
2018-Jul-20 06:00N 29°56' W 092°59'0 0.0
2018-Jul-20 05:30N 29°56' W 092°59'0 0.0
2018-Jul-20 04:58N 29°56' W 092°59'0 0.0
2018-Jul-20 04:29N 29°56' W 092°59'1 1.3
2018-Jul-20 03:43N 29°56' W 092°58'1 3.4
2018-Jul-20 03:29N 29°56' W 092°57'1 1.6
2018-Jul-20 03:00N 29°56' W 092°56'0 0.0
2018-Jul-20 02:23N 29°56' W 092°56'0 0.0
2018-Jul-19 07:19N 29°56' W 092°56'0 0.0
2018-Jul-19 07:00N 29°56' W 092°56'27 2.0
2018-Jul-18 17:32N 29°53' W 092°25'0 4.9
2018-Jul-18 17:28N 29°53' W 092°24'3 4.5
2018-Jul-18 16:45N 29°51' W 092°22'1 4.7
2018-Jul-18 16:30N 29°51' W 092°20'2 4.5
2018-Jul-18 16:00N 29°50' W 092°18'2 4.3
2018-Jul-18 15:30N 29°49' W 092°16'3 5.5
2018-Jul-18 15:00N 29°48' W 092°13'3 5.5
2018-Jul-18 14:30N 29°47' W 092°10'6 5.7
2018-Jul-18 13:30N 29°48' W 092°04'3 6.0
2018-Jul-18 13:00N 29°49' W 092°01'3 5.9
2018-Jul-18 12:30N 29°50' W 091°58'3 5.8
2018-Jul-18 12:00N 29°51' W 091°54'3 5.8
2018-Jul-18 11:27N 29°51' W 091°51'59 3.9
2018-Jul-17 20:25N 29°32' W 090°47'2 4.6
2018-Jul-17 20:00N 29°33' W 090°45'2 3.9
2018-Jul-17 19:30N 29°34' W 090°43'2 4.1
2018-Jul-17 19:00N 29°36' W 090°43'2 3.6
2018-Jul-17 18:30N 29°36' W 090°40'2 3.0
2018-Jul-17 17:47N 29°35' W 090°38'15 2.9
2018-Jul-17 12:41N 29°37' W 090°21'1 5.6
2018-Jul-17 12:30N 29°38' W 090°21'  
2018-Jul-14 20:53N 29°35' W 090°38'2 5.2
2018-Jul-14 20:27N 29°36' W 090°40'2 4.6
2018-Jul-14 20:00N 29°37' W 090°42'2 4.4
2018-Jul-14 19:30N 29°35' W 090°43'2 3.8
2018-Jul-14 19:00N 29°34' W 090°45'62 3.9
2018-Jul-14 03:07N 29°51' W 091°53'1 5.6
2018-Jul-14 02:59N 29°51' W 091°54'3 5.2
2018-Jul-14 02:29N 29°50' W 091°57'2 5.0
2018-Jul-14 02:00N 29°50' W 091°60'3 5.3
2018-Jul-14 01:30N 29°49' W 092°03'2 4.9
2018-Jul-14 01:00N 29°48' W 092°05'2 5.0
2018-Jul-14 00:30N 29°47' W 092°08'2 4.6
2018-Jul-14 00:00N 29°47' W 092°11'2 3.5
2018-Jul-13 23:30N 29°47' W 092°12'1 1.3
2018-Jul-13 23:00N 29°47' W 092°13'1 1.1
2018-Jul-13 22:30N 29°48' W 092°14'1 1.1
2018-Jul-13 22:00N 29°48' W 092°14'1 2.6
2018-Jul-13 21:30N 29°48' W 092°16'1 2.0
2018-Jul-13 21:00N 29°49' W 092°17'2 4.2
2018-Jul-13 20:30N 29°50' W 092°18'2 4.6
2018-Jul-13 20:00N 29°51' W 092°21'39 3.4
2018-Jul-13 08:28N 29°56' W 093°05'2 3.5
2018-Jul-13 07:59N 29°56' W 093°07'2 4.4
2018-Jul-13 07:30N 29°56' W 093°10'1 2.5
2018-Jul-13 07:00N 29°57' W 093°11'2 3.1
2018-Jul-13 06:30N 29°58' W 093°12'2 3.3
2018-Jul-13 06:00N 29°60' W 093°13'1 2.4
2018-Jul-13 05:30N 30°01' W 093°14'1 2.8
2018-Jul-13 05:00N 30°02' W 093°15'2 3.0
2018-Jul-13 04:30N 30°03' W 093°16'2 3.0
2018-Jul-13 04:00N 30°04' W 093°16'2 3.2
2018-Jul-13 03:30N 30°05' W 093°18'1 2.3
2018-Jul-13 03:00N 30°06' W 093°19'0 0.1
2018-Jul-13 02:30N 30°06' W 093°19'0 0.0
2018-Jul-13 02:00N 30°06' W 093°19'0 0.0
2018-Jul-13 01:30N 30°06' W 093°19'0 0.0
2018-Jul-13 01:00N 30°06' W 093°19'0 0.0
2018-Jul-13 00:30N 30°06' W 093°19'0 0.0
2018-Jul-13 00:00N 30°06' W 093°19'0 0.0
2018-Jul-12 23:29N 30°06' W 093°19'0 0.0
2018-Jul-12 23:00N 30°06' W 093°19'0 0.0
2018-Jul-12 22:30N 30°06' W 093°19'0 0.0
2018-Jul-12 22:00N 30°06' W 093°19'1 1.0
2018-Jul-12 21:30N 30°06' W 093°19'1 1.6
2018-Jul-12 21:00N 30°05' W 093°20'0 0.7
2018-Jul-12 20:30N 30°05' W 093°20'0 0.0
2018-Jul-12 20:00N 30°05' W 093°20'0 0.0
2018-Jul-12 19:30N 30°05' W 093°20'0 0.0
2018-Jul-12 19:00N 30°05' W 093°20'0 0.0
2018-Jul-12 18:30N 30°05' W 093°20'0 0.0
2018-Jul-12 18:00N 30°05' W 093°20'0 0.5
2018-Jul-12 17:30N 30°05' W 093°20'0 0.0
2018-Jul-12 17:00N 30°05' W 093°20'0 0.0
2018-Jul-12 16:30N 30°05' W 093°20'0 0.0
2018-Jul-12 16:00N 30°05' W 093°20'0 0.0
2018-Jul-12 15:30N 30°05' W 093°20'0 0.0
2018-Jul-12 15:00N 30°05' W 093°20'0 0.0
2018-Jul-12 14:30N 30°05' W 093°20'0 0.0
2018-Jul-12 14:00N 30°05' W 093°20'0 0.5
2018-Jul-12 13:30N 30°05' W 093°20'0 0.0
2018-Jul-12 13:00N 30°05' W 093°20'0 0.0
2018-Jul-12 12:30N 30°05' W 093°20'0 0.0
2018-Jul-12 12:00N 30°05' W 093°20'0 0.0
2018-Jul-12 11:30N 30°05' W 093°20'0 0.0
2018-Jul-12 11:00N 30°05' W 093°20'0 0.0
2018-Jul-12 10:30N 30°05' W 093°20'0 0.0
2018-Jul-12 10:00N 30°05' W 093°20'0 0.0
2018-Jul-12 09:30N 30°05' W 093°20'0 0.0
2018-Jul-12 09:00N 30°05' W 093°20'0 0.0
2018-Jul-12 08:30N 30°05' W 093°20'0 0.0
2018-Jul-12 08:00N 30°05' W 093°20'0 0.0
2018-Jul-12 07:30N 30°05' W 093°20'0 0.0
2018-Jul-12 07:00N 30°05' W 093°20'0 0.0
2018-Jul-12 06:30N 30°05' W 093°20'0 0.0
2018-Jul-12 06:00N 30°05' W 093°20'0 0.0
2018-Jul-12 05:30N 30°05' W 093°20'0 0.0
2018-Jul-12 05:00N 30°05' W 093°20'0 0.0
2018-Jul-12 04:30N 30°05' W 093°20'0 0.0
2018-Jul-12 04:00N 30°05' W 093°20'0 0.0
2018-Jul-12 03:30N 30°05' W 093°20'0 0.0
2018-Jul-12 03:00N 30°05' W 093°20'0 0.0
2018-Jul-12 02:30N 30°05' W 093°20'0 0.0
2018-Jul-12 02:00N 30°05' W 093°20'0 0.0
2018-Jul-12 01:30N 30°05' W 093°20'0 0.0
2018-Jul-12 01:00N 30°05' W 093°20'0 0.0
2018-Jul-12 00:30N 30°05' W 093°20'0 0.0
2018-Jul-12 00:00N 30°05' W 093°20'0 0.5
2018-Jul-11 23:30N 30°05' W 093°20'0 0.0
2018-Jul-11 23:00N 30°05' W 093°20'0 0.0
2018-Jul-11 22:30N 30°05' W 093°20'0 0.0
2018-Jul-11 22:00N 30°05' W 093°20'0 0.0
2018-Jul-11 21:30N 30°05' W 093°20'0 0.0
2018-Jul-11 21:00N 30°05' W 093°20'0 0.0
2018-Jul-11 20:30N 30°05' W 093°20'0 0.0
2018-Jul-11 20:00N 30°05' W 093°20'0 0.0
2018-Jul-11 19:30N 30°05' W 093°20'0 0.0
2018-Jul-11 19:00N 30°05' W 093°20'0 0.0
2018-Jul-11 18:30N 30°05' W 093°20'0 0.5
2018-Jul-11 18:00N 30°05' W 093°20'0 0.0
2018-Jul-11 17:30N 30°05' W 093°20'0 0.0
2018-Jul-11 17:00N 30°05' W 093°20'0 0.0
2018-Jul-11 16:30N 30°05' W 093°20'0 0.0
2018-Jul-11 16:00N 30°05' W 093°20'0 0.0
2018-Jul-11 15:30N 30°05' W 093°20'0 0.0
2018-Jul-11 15:00N 30°05' W 093°20'0 0.0
2018-Jul-11 14:30N 30°05' W 093°20'0 0.1
2018-Jul-11 14:00N 30°05' W 093°20'0 0.0
2018-Jul-11 13:30N 30°05' W 093°20'0 0.0
2018-Jul-11 13:00N 30°05' W 093°20'0 0.0
2018-Jul-11 12:30N 30°05' W 093°20'0 0.0
2018-Jul-11 12:00N 30°05' W 093°20'0 0.0
2018-Jul-11 11:30N 30°05' W 093°20'0 0.0
2018-Jul-11 11:00N 30°05' W 093°20'0 0.0
2018-Jul-11 10:30N 30°05' W 093°20'0 0.0
2018-Jul-11 10:00N 30°05' W 093°20'0 0.0
2018-Jul-11 09:30N 30°05' W 093°20'0 0.0
2018-Jul-11 09:00N 30°05' W 093°20'0 0.0
2018-Jul-11 08:30N 30°05' W 093°20'0 0.0
2018-Jul-11 08:00N 30°05' W 093°20'0 0.0
2018-Jul-11 07:30N 30°05' W 093°20'0 0.0
2018-Jul-11 07:00N 30°05' W 093°20'0 0.0
2018-Jul-11 06:30N 30°05' W 093°20'0 0.0
2018-Jul-11 06:00N 30°05' W 093°20'0 0.0
2018-Jul-11 05:30N 30°05' W 093°20'0 0.0
2018-Jul-11 05:00N 30°05' W 093°20'0 0.0
2018-Jul-11 04:30N 30°05' W 093°20'0 0.0
2018-Jul-11 04:00N 30°05' W 093°20'0 0.0
2018-Jul-11 03:30N 30°05' W 093°20'0 0.0
2018-Jul-11 03:00N 30°05' W 093°20'0 0.0
2018-Jul-11 02:30N 30°05' W 093°20'0 0.0
2018-Jul-11 02:00N 30°05' W 093°20'0 0.0
2018-Jul-11 01:30N 30°05' W 093°20'0 0.0
2018-Jul-11 01:00N 30°05' W 093°20'0 0.0
2018-Jul-11 00:30N 30°05' W 093°20'0 0.0
2018-Jul-11 00:00N 30°05' W 093°20'0 0.0
2018-Jul-10 23:30N 30°05' W 093°20'0 0.0
2018-Jul-10 23:00N 30°05' W 093°20'0 0.0
2018-Jul-10 22:30N 30°05' W 093°20'0 0.0
2018-Jul-10 22:00N 30°05' W 093°20'0 0.0
2018-Jul-10 21:30N 30°05' W 093°20'  
Track history (hours):
 
Tides and Currents Weather Stations Pressure Air Temp Water Temp Dewpoint Dewpoint Depression Visibility Wind Speed Wind Dir Waves Ship Positions

Shannon Mary

Owner: Genesis Marine, LLC, Houston, TX. More information available from US FCC via Universal Licensing System and Coast Guard Vessel Documentation Center.

Last reported at 2018-Jul-20 21:30 UTC. Time now 2018-Jul-20 21:47 UTC.
Position N 29°57' W 093°10'.

Length 26 m; draft 3.2 m.

Type: Ship (hazmat cat D). MMSI: 367637970.

Date/timePositionNaut miles runAvg speedWind from/ knotsBaromVisibWave heightAir tempDewpointWater temp
2018-Jul-20 21:30N 29°57' W 093°10'0 0.0
2018-Jul-20 21:00N 29°57' W 093°10'1 2.6
2018-Jul-20 20:30N 29°56' W 093°09'0 0.0
2018-Jul-20 20:00N 29°56' W 093°09'0 0.0
2018-Jul-20 19:30N 29°56' W 093°09'0 0.0
2018-Jul-20 19:00N 29°56' W 093°09'0 0.0
2018-Jul-20 18:30N 29°56' W 093°09'0 0.0
2018-Jul-20 18:00N 29°56' W 093°09'0 0.0
2018-Jul-20 17:30N 29°56' W 093°09'0 0.0
2018-Jul-20 17:00N 29°56' W 093°09'0 0.0
2018-Jul-20 16:30N 29°56' W 093°09'0 0.0
2018-Jul-20 16:00N 29°56' W 093°09'0 0.0
2018-Jul-20 15:30N 29°56' W 093°09'0 0.0
2018-Jul-20 15:00N 29°56' W 093°09'0 0.0
2018-Jul-20 14:30N 29°56' W 093°09'0 0.0
2018-Jul-20 14:00N 29°56' W 093°09'0 0.0
2018-Jul-20 13:30N 29°56' W 093°09'0 0.0
2018-Jul-20 13:00N 29°56' W 093°09'0 0.0
2018-Jul-20 12:30N 29°56' W 093°09'0 0.0
2018-Jul-20 11:59N 29°56' W 093°09'2 3.0
2018-Jul-20 11:28N 29°56' W 093°07'2 5.1
2018-Jul-20 11:00N 29°56' W 093°04'1 1.3
2018-Jul-20 10:30N 29°56' W 093°04'0 0.0
2018-Jul-20 09:59N 29°56' W 093°04'0 0.0
2018-Jul-20 09:30N 29°56' W 093°04'0 0.0
2018-Jul-20 09:00N 29°56' W 093°04'0 0.0
2018-Jul-20 08:30N 29°56' W 093°04'1 1.1
2018-Jul-20 07:54N 29°56' W 093°03'2 5.7
2018-Jul-20 07:30N 29°56' W 093°00'1 2.1
2018-Jul-20 07:00N 29°56' W 092°59'0 0.0
2018-Jul-20 06:30N 29°56' W 092°59'0 0.0
2018-Jul-20 06:00N 29°56' W 092°59'0 0.0
2018-Jul-20 05:30N 29°56' W 092°59'0 0.0
2018-Jul-20 04:58N 29°56' W 092°59'0 0.0
2018-Jul-20 04:29N 29°56' W 092°59'1 1.3
2018-Jul-20 03:43N 29°56' W 092°58'1 3.4
2018-Jul-20 03:29N 29°56' W 092°57'1 1.6
2018-Jul-20 03:00N 29°56' W 092°56'0 0.0
2018-Jul-20 02:23N 29°56' W 092°56'0 0.0
2018-Jul-19 07:19N 29°56' W 092°56'0 0.0
2018-Jul-19 07:00N 29°56' W 092°56'27 2.0
2018-Jul-18 17:32N 29°53' W 092°25'0 4.9
2018-Jul-18 17:28N 29°53' W 092°24'3 4.5
2018-Jul-18 16:45N 29°51' W 092°22'1 4.7
2018-Jul-18 16:30N 29°51' W 092°20'2 4.5
2018-Jul-18 16:00N 29°50' W 092°18'2 4.3
2018-Jul-18 15:30N 29°49' W 092°16'3 5.5
2018-Jul-18 15:00N 29°48' W 092°13'3 5.5
2018-Jul-18 14:30N 29°47' W 092°10'6 5.7
2018-Jul-18 13:30N 29°48' W 092°04'3 6.0
2018-Jul-18 13:00N 29°49' W 092°01'3 5.9
2018-Jul-18 12:30N 29°50' W 091°58'3 5.8
2018-Jul-18 12:00N 29°51' W 091°54'3 5.8
2018-Jul-18 11:27N 29°51' W 091°51'59 3.9
2018-Jul-17 20:25N 29°32' W 090°47'2 4.6
2018-Jul-17 20:00N 29°33' W 090°45'2 3.9
2018-Jul-17 19:30N 29°34' W 090°43'2 4.1
2018-Jul-17 19:00N 29°36' W 090°43'2 3.6
2018-Jul-17 18:30N 29°36' W 090°40'2 3.0
2018-Jul-17 17:47N 29°35' W 090°38'15 2.9
2018-Jul-17 12:41N 29°37' W 090°21'1 5.6
2018-Jul-17 12:30N 29°38' W 090°21'  
2018-Jul-14 20:53N 29°35' W 090°38'2 5.2
2018-Jul-14 20:27N 29°36' W 090°40'2 4.6
2018-Jul-14 20:00N 29°37' W 090°42'2 4.4
2018-Jul-14 19:30N 29°35' W 090°43'2 3.8
2018-Jul-14 19:00N 29°34' W 090°45'62 3.9
2018-Jul-14 03:07N 29°51' W 091°53'1 5.6
2018-Jul-14 02:59N 29°51' W 091°54'3 5.2
2018-Jul-14 02:29N 29°50' W 091°57'2 5.0
2018-Jul-14 02:00N 29°50' W 091°60'3 5.3
2018-Jul-14 01:30N 29°49' W 092°03'2 4.9
2018-Jul-14 01:00N 29°48' W 092°05'2 5.0
2018-Jul-14 00:30N 29°47' W 092°08'2 4.6
2018-Jul-14 00:00N 29°47' W 092°11'2 3.5
2018-Jul-13 23:30N 29°47' W 092°12'1 1.3
2018-Jul-13 23:00N 29°47' W 092°13'1 1.1
2018-Jul-13 22:30N 29°48' W 092°14'1 1.1
2018-Jul-13 22:00N 29°48' W 092°14'1 2.6
2018-Jul-13 21:30N 29°48' W 092°16'1 2.0
2018-Jul-13 21:00N 29°49' W 092°17'2 4.2
2018-Jul-13 20:30N 29°50' W 092°18'2 4.6
2018-Jul-13 20:00N 29°51' W 092°21'39 3.4
2018-Jul-13 08:28N 29°56' W 093°05'2 3.5
2018-Jul-13 07:59N 29°56' W 093°07'2 4.4
2018-Jul-13 07:30N 29°56' W 093°10'1 2.5
2018-Jul-13 07:00N 29°57' W 093°11'2 3.1
2018-Jul-13 06:30N 29°58' W 093°12'2 3.3
2018-Jul-13 06:00N 29°60' W 093°13'1 2.4
2018-Jul-13 05:30N 30°01' W 093°14'1 2.8
2018-Jul-13 05:00N 30°02' W 093°15'2 3.0
2018-Jul-13 04:30N 30°03' W 093°16'2 3.0
2018-Jul-13 04:00N 30°04' W 093°16'2 3.2
2018-Jul-13 03:30N 30°05' W 093°18'1 2.3
2018-Jul-13 03:00N 30°06' W 093°19'0 0.1
2018-Jul-13 02:30N 30°06' W 093°19'0 0.0
2018-Jul-13 02:00N 30°06' W 093°19'0 0.0
2018-Jul-13 01:30N 30°06' W 093°19'0 0.0
2018-Jul-13 01:00N 30°06' W 093°19'0 0.0
2018-Jul-13 00:30N 30°06' W 093°19'0 0.0
2018-Jul-13 00:00N 30°06' W 093°19'0 0.0
2018-Jul-12 23:29N 30°06' W 093°19'0 0.0
2018-Jul-12 23:00N 30°06' W 093°19'0 0.0
2018-Jul-12 22:30N 30°06' W 093°19'0 0.0
2018-Jul-12 22:00N 30°06' W 093°19'1 1.0
2018-Jul-12 21:30N 30°06' W 093°19'1 1.6
2018-Jul-12 21:00N 30°05' W 093°20'0 0.7
2018-Jul-12 20:30N 30°05' W 093°20'0 0.0
2018-Jul-12 20:00N 30°05' W 093°20'0 0.0
2018-Jul-12 19:30N 30°05' W 093°20'0 0.0
2018-Jul-12 19:00N 30°05' W 093°20'0 0.0
2018-Jul-12 18:30N 30°05' W 093°20'0 0.0
2018-Jul-12 18:00N 30°05' W 093°20'0 0.5
2018-Jul-12 17:30N 30°05' W 093°20'0 0.0
2018-Jul-12 17:00N 30°05' W 093°20'0 0.0
2018-Jul-12 16:30N 30°05' W 093°20'0 0.0
2018-Jul-12 16:00N 30°05' W 093°20'0 0.0
2018-Jul-12 15:30N 30°05' W 093°20'0 0.0
2018-Jul-12 15:00N 30°05' W 093°20'0 0.0
2018-Jul-12 14:30N 30°05' W 093°20'0 0.0
2018-Jul-12 14:00N 30°05' W 093°20'0 0.5
2018-Jul-12 13:30N 30°05' W 093°20'0 0.0
2018-Jul-12 13:00N 30°05' W 093°20'0 0.0
2018-Jul-12 12:30N 30°05' W 093°20'0 0.0
2018-Jul-12 12:00N 30°05' W 093°20'0 0.0
2018-Jul-12 11:30N 30°05' W 093°20'0 0.0
2018-Jul-12 11:00N 30°05' W 093°20'0 0.0
2018-Jul-12 10:30N 30°05' W 093°20'0 0.0
2018-Jul-12 10:00N 30°05' W 093°20'0 0.0
2018-Jul-12 09:30N 30°05' W 093°20'0 0.0
2018-Jul-12 09:00N 30°05' W 093°20'0 0.0
2018-Jul-12 08:30N 30°05' W 093°20'0 0.0
2018-Jul-12 08:00N 30°05' W 093°20'0 0.0
2018-Jul-12 07:30N 30°05' W 093°20'0 0.0
2018-Jul-12 07:00N 30°05' W 093°20'0 0.0
2018-Jul-12 06:30N 30°05' W 093°20'0 0.0
2018-Jul-12 06:00N 30°05' W 093°20'0 0.0
2018-Jul-12 05:30N 30°05' W 093°20'0 0.0
2018-Jul-12 05:00N 30°05' W 093°20'0 0.0
2018-Jul-12 04:30N 30°05' W 093°20'0 0.0
2018-Jul-12 04:00N 30°05' W 093°20'0 0.0
2018-Jul-12 03:30N 30°05' W 093°20'0 0.0
2018-Jul-12 03:00N 30°05' W 093°20'0 0.0
2018-Jul-12 02:30N 30°05' W 093°20'0 0.0
2018-Jul-12 02:00N 30°05' W 093°20'0 0.0
2018-Jul-12 01:30N 30°05' W 093°20'0 0.0
2018-Jul-12 01:00N 30°05' W 093°20'0 0.0
2018-Jul-12 00:30N 30°05' W 093°20'0 0.0
2018-Jul-12 00:00N 30°05' W 093°20'0 0.5
2018-Jul-11 23:30N 30°05' W 093°20'0 0.0
2018-Jul-11 23:00N 30°05' W 093°20'0 0.0
2018-Jul-11 22:30N 30°05' W 093°20'0 0.0
2018-Jul-11 22:00N 30°05' W 093°20'0 0.0
2018-Jul-11 21:30N 30°05' W 093°20'0 0.0
2018-Jul-11 21:00N 30°05' W 093°20'0 0.0
2018-Jul-11 20:30N 30°05' W 093°20'0 0.0
2018-Jul-11 20:00N 30°05' W 093°20'0 0.0
2018-Jul-11 19:30N 30°05' W 093°20'0 0.0
2018-Jul-11 19:00N 30°05' W 093°20'0 0.0
2018-Jul-11 18:30N 30°05' W 093°20'0 0.5
2018-Jul-11 18:00N 30°05' W 093°20'0 0.0
2018-Jul-11 17:30N 30°05' W 093°20'0 0.0
2018-Jul-11 17:00N 30°05' W 093°20'0 0.0
2018-Jul-11 16:30N 30°05' W 093°20'0 0.0
2018-Jul-11 16:00N 30°05' W 093°20'0 0.0
2018-Jul-11 15:30N 30°05' W 093°20'0 0.0
2018-Jul-11 15:00N 30°05' W 093°20'0 0.0
2018-Jul-11 14:30N 30°05' W 093°20'0 0.1
2018-Jul-11 14:00N 30°05' W 093°20'0 0.0
2018-Jul-11 13:30N 30°05' W 093°20'0 0.0
2018-Jul-11 13:00N 30°05' W 093°20'0 0.0
2018-Jul-11 12:30N 30°05' W 093°20'0 0.0
2018-Jul-11 12:00N 30°05' W 093°20'0 0.0
2018-Jul-11 11:30N 30°05' W 093°20'0 0.0
2018-Jul-11 11:00N 30°05' W 093°20'0 0.0
2018-Jul-11 10:30N 30°05' W 093°20'0 0.0
2018-Jul-11 10:00N 30°05' W 093°20'0 0.0
2018-Jul-11 09:30N 30°05' W 093°20'0 0.0
2018-Jul-11 09:00N 30°05' W 093°20'0 0.0
2018-Jul-11 08:30N 30°05' W 093°20'0 0.0
2018-Jul-11 08:00N 30°05' W 093°20'0 0.0
2018-Jul-11 07:30N 30°05' W 093°20'0 0.0
2018-Jul-11 07:00N 30°05' W 093°20'0 0.0
2018-Jul-11 06:30N 30°05' W 093°20'0 0.0
2018-Jul-11 06:00N 30°05' W 093°20'0 0.0
2018-Jul-11 05:30N 30°05' W 093°20'0 0.0
2018-Jul-11 05:00N 30°05' W 093°20'0 0.0
2018-Jul-11 04:30N 30°05' W 093°20'0 0.0
2018-Jul-11 04:00N 30°05' W 093°20'0 0.0
2018-Jul-11 03:30N 30°05' W 093°20'0 0.0
2018-Jul-11 03:00N 30°05' W 093°20'0 0.0
2018-Jul-11 02:30N 30°05' W 093°20'0 0.0
2018-Jul-11 02:00N 30°05' W 093°20'0 0.0
2018-Jul-11 01:30N 30°05' W 093°20'0 0.0
2018-Jul-11 01:00N 30°05' W 093°20'0 0.0
2018-Jul-11 00:30N 30°05' W 093°20'0 0.0
2018-Jul-11 00:00N 30°05' W 093°20'0 0.0
2018-Jul-10 23:30N 30°05' W 093°20'0 0.0
2018-Jul-10 23:00N 30°05' W 093°20'0 0.0
2018-Jul-10 22:30N 30°05' W 093°20'0 0.0
2018-Jul-10 22:00N 30°05' W 093°20'0 0.0
2018-Jul-10 21:30N 30°05' W 093°20'  

Dump ship's entire track history